Terminal Aerodrome Forecast
Issued by NWS Sterling, VA

Home | Current Version | Previous Version | Text Only | Print | Product List | Glossary On
Versions: 1 2 3 4 5 6 7 8 9 10 11 12 13 14 15 16 17 18 19 20 21 22
459
FTUS41 KLWX 200532
TAFCHO
TAF
KCHO 200532Z 2006/2106 VRB03KT P6SM FEW250
     FM200900 00000KT 5SM BR FEW250
     FM201200 VRB04KT P6SM FEW050 FEW250
     FM201900 VRB04KT P6SM BKN050=

USA.gov is the U.S. government's official web portal to all federal, state and local government web resources and services.